ASA2611 KSMF-KAFW
Flight info
| Callsign | ASA2611 |
|---|---|
| Flight time | 2h 49m |
| Altitude | 41000 |
| Route | SCTWN4 SHUFL LIDAT J92 BLD INW TXO TURKI WESAT3 |
| Aircraft | A333/H-SDE3GHIJ2J3J5M1RVWXY/LB2D1 |
Departure
| Time | 2026-05-07 19:23 |
|---|---|
| Airport | Sacramento International Airport (KSMF) |
Arrival
| Time | 2026-05-07 22:12 |
|---|---|
| Airport | Perot Field/Fort Worth Alliance Airport (KAFW) |
| Time | Latitude | Longitude | Altitude | Speed | Heading |
|---|---|---|---|---|---|
| 2026-05-07 18:39 | 38.69283 | -121.59684 | 37 ft | 0 kts | 352° |
| 2026-05-07 19:13 | 38.69271 | -121.59682 | 35 ft | 3 kts | 352° |
| 2026-05-07 19:13 | 38.69250 | -121.59678 | 34 ft | 3 kts | 352° |
| 2026-05-07 19:13 | 38.69231 | -121.59674 | 34 ft | 3 kts | 335° |
| 2026-05-07 19:14 | 38.69217 | -121.59659 | 33 ft | 3 kts | 292° |
| 2026-05-07 19:14 | 38.69212 | -121.59633 | 34 ft | 3 kts | 272° |
| 2026-05-07 19:14 | 38.69211 | -121.59617 | 34 ft | 1 kts | 270° |
| 2026-05-07 19:14 | 38.69211 | -121.59615 | 34 ft | 0 kts | 270° |
| 2026-05-07 19:17 | 38.69211 | -121.59636 | 34 ft | 4 kts | 270° |
| 2026-05-07 19:18 | 38.69211 | -121.59689 | 36 ft | 7 kts | 270° |
| 2026-05-07 19:18 | 38.69211 | -121.59761 | 36 ft | 9 kts | 270° |
| 2026-05-07 19:18 | 38.69224 | -121.59837 | 37 ft | 9 kts | 302° |
| 2026-05-07 19:18 | 38.69276 | -121.59867 | 37 ft | 8 kts | 351° |
| 2026-05-07 19:19 | 38.69343 | -121.59872 | 36 ft | 11 kts | 1° |
| 2026-05-07 19:19 | 38.69431 | -121.59870 | 35 ft | 14 kts | 1° |
| 2026-05-07 19:19 | 38.69534 | -121.59867 | 36 ft | 15 kts | 1° |
| 2026-05-07 19:19 | 38.69640 | -121.59865 | 38 ft | 16 kts | 1° |
| 2026-05-07 19:20 | 38.69757 | -121.59862 | 37 ft | 18 kts | 1° |
| 2026-05-07 19:20 | 38.69888 | -121.59862 | 37 ft | 19 kts | 360° |
| 2026-05-07 19:20 | 38.70022 | -121.59860 | 39 ft | 20 kts | 1° |
| 2026-05-07 19:20 | 38.70164 | -121.59857 | 38 ft | 21 kts | 1° |
| 2026-05-07 19:21 | 38.70318 | -121.59853 | 39 ft | 22 kts | 1° |
| 2026-05-07 19:21 | 38.70476 | -121.59851 | 39 ft | 23 kts | 359° |
| 2026-05-07 19:21 | 38.70628 | -121.59850 | 38 ft | 22 kts | 0° |
| 2026-05-07 19:21 | 38.70717 | -121.59923 | 39 ft | 16 kts | 284° |
| 2026-05-07 19:22 | 38.70713 | -121.60064 | 38 ft | 17 kts | 238° |
| 2026-05-07 19:22 | 38.70642 | -121.60109 | 39 ft | 0 kts | 186° |
| 2026-05-07 19:22 | 38.70636 | -121.60110 | 39 ft | 7 kts | 184° |
| 2026-05-07 19:22 | 38.70398 | -121.60121 | 40 ft | 68 kts | 179° |
| 2026-05-07 19:23 | 38.69695 | -121.60126 | 34 ft | 133 kts | 180° |
| 2026-05-07 19:23 | 38.68602 | -121.60138 | 310 ft | 170 kts | 180° |
| 2026-05-07 19:23 | 38.67380 | -121.59994 | 1000 ft | 185 kts | 163° |
| 2026-05-07 19:23 | 38.66302 | -121.59008 | 1732 ft | 199 kts | 126° |
| 2026-05-07 19:24 | 38.65966 | -121.57326 | 2603 ft | 195 kts | 94° |
| 2026-05-07 19:24 | 38.65801 | -121.55621 | 3525 ft | 195 kts | 102° |
| 2026-05-07 19:24 | 38.65496 | -121.53907 | 4304 ft | 199 kts | 105° |
| 2026-05-07 19:24 | 38.65074 | -121.52139 | 4847 ft | 219 kts | 111° |
| 2026-05-07 19:25 | 38.64515 | -121.50194 | 5166 ft | 249 kts | 111° |
| 2026-05-07 19:25 | 38.63894 | -121.48017 | 5646 ft | 269 kts | 111° |
| 2026-05-07 19:25 | 38.63258 | -121.45712 | 6324 ft | 281 kts | 108° |
| 2026-05-07 19:25 | 38.62780 | -121.43252 | 7103 ft | 287 kts | 103° |
| 2026-05-07 19:26 | 38.62394 | -121.40772 | 7939 ft | 291 kts | 102° |
| 2026-05-07 19:26 | 38.62012 | -121.38220 | 8832 ft | 294 kts | 102° |
| 2026-05-07 19:26 | 38.61625 | -121.35632 | 9720 ft | 298 kts | 102° |
| 2026-05-07 19:26 | 38.61225 | -121.32993 | 10418 ft | 309 kts | 102° |
| 2026-05-07 19:27 | 38.60800 | -121.30199 | 10756 ft | 331 kts | 102° |
| 2026-05-07 19:27 | 38.60347 | -121.27232 | 11080 ft | 352 kts | 102° |
| 2026-05-07 19:27 | 38.59863 | -121.24066 | 11419 ft | 371 kts | 101° |
| 2026-05-07 19:27 | 38.59363 | -121.20791 | 11974 ft | 380 kts | 101° |
| 2026-05-07 19:28 | 38.58852 | -121.17456 | 12716 ft | 384 kts | 101° |
| 2026-05-07 19:28 | 38.58334 | -121.14087 | 13436 ft | 389 kts | 101° |
| 2026-05-07 19:28 | 38.57809 | -121.10675 | 14125 ft | 393 kts | 101° |
| 2026-05-07 19:28 | 38.57278 | -121.07237 | 14771 ft | 397 kts | 101° |
| 2026-05-07 19:29 | 38.56740 | -121.03760 | 15437 ft | 400 kts | 101° |
| 2026-05-07 19:29 | 38.56204 | -121.00301 | 16100 ft | 403 kts | 101° |
| 2026-05-07 19:29 | 38.55663 | -120.96816 | 16764 ft | 406 kts | 101° |
| 2026-05-07 19:29 | 38.55107 | -120.93249 | 17386 ft | 411 kts | 101° |
| 2026-05-07 19:30 | 38.54546 | -120.89649 | 17999 ft | 415 kts | 101° |
| 2026-05-07 19:30 | 38.53978 | -120.86017 | 18650 ft | 418 kts | 100° |
| 2026-05-07 19:30 | 38.53405 | -120.82358 | 19175 ft | 422 kts | 100° |
| 2026-05-07 19:30 | 38.52826 | -120.78674 | 19715 ft | 425 kts | 100° |
| 2026-05-07 19:31 | 38.52242 | -120.74959 | 20298 ft | 427 kts | 101° |
| 2026-05-07 19:31 | 38.51655 | -120.71240 | 20902 ft | 429 kts | 100° |
| 2026-05-07 19:31 | 38.51061 | -120.67488 | 21406 ft | 433 kts | 100° |
| 2026-05-07 19:31 | 38.50460 | -120.63695 | 21877 ft | 437 kts | 101° |
| 2026-05-07 19:32 | 38.49856 | -120.59892 | 22462 ft | 438 kts | 101° |
| 2026-05-07 19:32 | 38.49249 | -120.56076 | 23025 ft | 440 kts | 100° |
| 2026-05-07 19:32 | 38.48638 | -120.52237 | 23496 ft | 444 kts | 101° |
| 2026-05-07 19:32 | 38.48018 | -120.48359 | 23925 ft | 447 kts | 101° |
| 2026-05-07 19:33 | 38.47395 | -120.44466 | 24348 ft | 450 kts | 101° |
| 2026-05-07 19:33 | 38.46766 | -120.40553 | 24790 ft | 452 kts | 101° |
| 2026-05-07 19:33 | 38.46129 | -120.36596 | 25107 ft | 458 kts | 100° |
| 2026-05-07 19:33 | 38.45484 | -120.32594 | 25429 ft | 463 kts | 101° |
| 2026-05-07 19:34 | 38.44835 | -120.28583 | 25954 ft | 462 kts | 100° |
| 2026-05-07 19:34 | 38.44404 | -120.25918 | 26302 ft | 462 kts | 101° |
| 2026-05-07 19:34 | 38.43530 | -120.20536 | 26805 ft | 466 kts | 99° |
| 2026-05-07 19:34 | 38.42862 | -120.16472 | 27130 ft | 470 kts | 100° |
| 2026-05-07 19:35 | 38.42182 | -120.12386 | 27572 ft | 472 kts | 101° |
| 2026-05-07 19:35 | 38.41499 | -120.08288 | 27958 ft | 475 kts | 99° |
| 2026-05-07 19:35 | 38.40807 | -120.04145 | 28257 ft | 479 kts | 99° |
| 2026-05-07 19:35 | 38.40107 | -119.99961 | 28564 ft | 484 kts | 100° |
| 2026-05-07 19:36 | 38.39404 | -119.95765 | 29005 ft | 485 kts | 100° |
| 2026-05-07 19:36 | 38.38697 | -119.91564 | 29491 ft | 485 kts | 100° |
| 2026-05-07 19:36 | 38.37985 | -119.87343 | 29806 ft | 489 kts | 100° |
| 2026-05-07 19:36 | 38.37267 | -119.83091 | 30155 ft | 491 kts | 101° |
| 2026-05-07 19:37 | 38.36545 | -119.78832 | 30462 ft | 494 kts | 100° |
| 2026-05-07 19:37 | 38.35819 | -119.74547 | 30860 ft | 494 kts | 100° |
| 2026-05-07 19:37 | 38.35094 | -119.70285 | 31283 ft | 493 kts | 99° |
| 2026-05-07 19:37 | 38.34365 | -119.66005 | 31656 ft | 494 kts | 101° |
| 2026-05-07 19:38 | 38.33638 | -119.61752 | 32157 ft | 490 kts | 101° |
| 2026-05-07 19:38 | 38.32914 | -119.57522 | 32669 ft | 488 kts | 101° |
| 2026-05-07 19:38 | 38.32224 | -119.53503 | 33063 ft | 487 kts | 100° |
| 2026-05-07 19:38 | 38.31500 | -119.49295 | 33458 ft | 487 kts | 100° |
| 2026-05-07 19:39 | 38.31020 | -119.46511 | 33758 ft | 485 kts | 100° |
| 2026-05-07 19:39 | 38.30053 | -119.40918 | 34385 ft | 481 kts | 100° |
| 2026-05-07 19:39 | 38.29332 | -119.36755 | 34728 ft | 481 kts | 100° |
| 2026-05-07 19:39 | 38.28855 | -119.34008 | 34919 ft | 481 kts | 100° |
| 2026-05-07 19:40 | 38.27890 | -119.28458 | 35386 ft | 479 kts | 101° |
| 2026-05-07 19:40 | 38.27178 | -119.24377 | 35825 ft | 475 kts | 101° |
| 2026-05-07 19:40 | 38.26461 | -119.20279 | 36203 ft | 474 kts | 101° |
| 2026-05-07 19:40 | 38.25746 | -119.16193 | 36507 ft | 473 kts | 101° |
| 2026-05-07 19:41 | 38.25029 | -119.12109 | 36819 ft | 473 kts | 101° |
| 2026-05-07 19:41 | 38.24314 | -119.08040 | 37131 ft | 471 kts | 101° |
| 2026-05-07 19:41 | 38.23595 | -119.03963 | 37436 ft | 471 kts | 102° |
| 2026-05-07 19:41 | 38.22879 | -118.99913 | 37730 ft | 470 kts | 101° |
| 2026-05-07 19:42 | 38.22395 | -118.97173 | 37965 ft | 469 kts | 101° |
| 2026-05-07 19:42 | 38.21688 | -118.93188 | 38289 ft | 467 kts | 102° |
| 2026-05-07 19:42 | 38.20973 | -118.89162 | 38589 ft | 466 kts | 101° |
| 2026-05-07 19:42 | 38.20260 | -118.85156 | 38836 ft | 465 kts | 102° |
| 2026-05-07 19:43 | 38.19543 | -118.81140 | 39034 ft | 466 kts | 102° |
| 2026-05-07 19:43 | 38.18824 | -118.77116 | 39190 ft | 467 kts | 102° |
| 2026-05-07 19:43 | 38.18104 | -118.73096 | 39365 ft | 467 kts | 101° |
| 2026-05-07 19:43 | 38.17379 | -118.69059 | 39539 ft | 468 kts | 102° |
| 2026-05-07 19:44 | 38.16653 | -118.65025 | 39703 ft | 469 kts | 102° |
| 2026-05-07 19:44 | 38.15924 | -118.60987 | 39860 ft | 470 kts | 102° |
| 2026-05-07 19:44 | 38.15192 | -118.56937 | 40032 ft | 470 kts | 102° |
| 2026-05-07 19:44 | 38.14459 | -118.52888 | 40191 ft | 471 kts | 102° |
| 2026-05-07 19:45 | 38.13724 | -118.48836 | 40347 ft | 471 kts | 102° |
| 2026-05-07 19:45 | 38.12987 | -118.44780 | 40490 ft | 472 kts | 102° |
| 2026-05-07 19:45 | 38.11507 | -118.36668 | 40521 ft | 471 kts | 102° |
| 2026-05-07 19:46 | 38.09546 | -118.28743 | 40515 ft | 473 kts | 115° |
| 2026-05-07 19:46 | 38.06211 | -118.21549 | 40515 ft | 474 kts | 121° |
| 2026-05-07 19:47 | 38.02673 | -118.14475 | 40507 ft | 475 kts | 121° |
| 2026-05-07 19:47 | 37.99138 | -118.07397 | 40515 ft | 474 kts | 121° |
| 2026-05-07 19:48 | 37.95614 | -118.00339 | 40510 ft | 474 kts | 121° |
| 2026-05-07 19:48 | 37.92080 | -117.93269 | 40512 ft | 475 kts | 121° |
| 2026-05-07 19:49 | 37.88547 | -117.86215 | 40510 ft | 475 kts | 121° |
| 2026-05-07 19:49 | 37.85006 | -117.79159 | 40506 ft | 474 kts | 121° |
| 2026-05-07 19:50 | 37.81469 | -117.72126 | 40508 ft | 474 kts | 121° |
| 2026-05-07 19:50 | 37.77658 | -117.65336 | 40506 ft | 475 kts | 132° |
| 2026-05-07 19:51 | 37.72832 | -117.59630 | 40503 ft | 476 kts | 138° |
| 2026-05-07 19:51 | 37.67782 | -117.54238 | 40515 ft | 476 kts | 139° |
| 2026-05-07 19:52 | 37.62706 | -117.48873 | 40513 ft | 476 kts | 139° |
| 2026-05-07 19:52 | 37.57653 | -117.43486 | 40516 ft | 476 kts | 139° |
| 2026-05-07 19:53 | 37.52606 | -117.38078 | 40515 ft | 476 kts | 139° |
| 2026-05-07 19:53 | 37.47560 | -117.32672 | 40523 ft | 476 kts | 139° |
| 2026-05-07 19:54 | 37.42425 | -117.27418 | 40515 ft | 476 kts | 143° |
| 2026-05-07 19:54 | 37.36989 | -117.22649 | 40517 ft | 477 kts | 145° |
| 2026-05-07 19:55 | 37.31494 | -117.17987 | 40514 ft | 477 kts | 145° |
| 2026-05-07 19:55 | 37.25981 | -117.13342 | 40512 ft | 477 kts | 145° |
| 2026-05-07 19:56 | 37.20472 | -117.08696 | 40503 ft | 478 kts | 145° |
| 2026-05-07 19:56 | 37.14959 | -117.04043 | 40496 ft | 478 kts | 145° |
| 2026-05-07 19:57 | 37.09436 | -116.99389 | 40498 ft | 478 kts | 145° |
| 2026-05-07 19:57 | 37.03919 | -116.94747 | 40487 ft | 478 kts | 144° |
| 2026-05-07 19:58 | 36.98400 | -116.90114 | 40482 ft | 478 kts | 145° |
| 2026-05-07 19:58 | 36.92870 | -116.85479 | 40478 ft | 478 kts | 145° |
| 2026-05-07 19:59 | 36.87337 | -116.80851 | 40478 ft | 479 kts | 145° |
| 2026-05-07 19:59 | 36.81977 | -116.75897 | 40473 ft | 483 kts | 135° |
| 2026-05-07 20:00 | 36.77827 | -116.69320 | 40472 ft | 485 kts | 118° |
| 2026-05-07 20:00 | 36.74603 | -116.61973 | 40478 ft | 486 kts | 115° |
| 2026-05-07 20:01 | 36.71536 | -116.54470 | 40469 ft | 485 kts | 115° |
| 2026-05-07 20:01 | 36.68463 | -116.46982 | 40471 ft | 485 kts | 115° |
| 2026-05-07 20:02 | 36.65356 | -116.39520 | 40460 ft | 485 kts | 115° |
| 2026-05-07 20:02 | 36.62232 | -116.32081 | 40464 ft | 485 kts | 115° |
| 2026-05-07 20:03 | 36.59099 | -116.24646 | 40471 ft | 485 kts | 115° |
| 2026-05-07 20:03 | 36.55960 | -116.17208 | 40464 ft | 485 kts | 115° |
| 2026-05-07 20:04 | 36.52821 | -116.09787 | 40474 ft | 485 kts | 115° |
| 2026-05-07 20:04 | 36.49676 | -116.02367 | 40475 ft | 484 kts | 115° |
| 2026-05-07 20:05 | 36.46532 | -115.94966 | 40507 ft | 484 kts | 115° |
| 2026-05-07 20:05 | 36.43382 | -115.87567 | 40514 ft | 485 kts | 115° |
| 2026-05-07 20:06 | 36.40230 | -115.80178 | 40513 ft | 484 kts | 115° |
| 2026-05-07 20:06 | 36.37073 | -115.72794 | 40525 ft | 484 kts | 115° |
| 2026-05-07 20:07 | 36.33936 | -115.65477 | 40524 ft | 484 kts | 115° |
| 2026-05-07 20:07 | 36.30769 | -115.58106 | 40531 ft | 484 kts | 116° |
| 2026-05-07 20:08 | 36.27596 | -115.50743 | 40536 ft | 484 kts | 115° |
| 2026-05-07 20:08 | 36.24739 | -115.44121 | 40531 ft | 483 kts | 116° |
| 2026-05-07 20:09 | 36.21623 | -115.36912 | 40518 ft | 483 kts | 115° |
| 2026-05-07 20:10 | 36.16855 | -115.25909 | 40526 ft | 483 kts | 116° |
| 2026-05-07 20:10 | 36.13674 | -115.18595 | 40537 ft | 483 kts | 116° |
| 2026-05-07 20:11 | 36.10483 | -115.11272 | 40541 ft | 483 kts | 116° |
| 2026-05-07 20:11 | 36.07289 | -115.03958 | 40534 ft | 483 kts | 116° |
| 2026-05-07 20:12 | 36.04090 | -114.96650 | 40512 ft | 483 kts | 116° |
| 2026-05-07 20:12 | 36.00900 | -114.89343 | 40516 ft | 483 kts | 114° |
| 2026-05-07 20:13 | 35.98596 | -114.81614 | 40518 ft | 479 kts | 103° |
| 2026-05-07 20:13 | 35.96840 | -114.73684 | 40517 ft | 478 kts | 102° |
| 2026-05-07 20:14 | 35.95187 | -114.65740 | 40497 ft | 478 kts | 102° |
| 2026-05-07 20:14 | 35.93525 | -114.57788 | 40470 ft | 478 kts | 102° |
| 2026-05-07 20:15 | 35.91843 | -114.49857 | 40451 ft | 478 kts | 102° |
| 2026-05-07 20:15 | 35.90155 | -114.41972 | 40425 ft | 478 kts | 102° |
| 2026-05-07 20:16 | 35.88450 | -114.34042 | 40431 ft | 478 kts | 102° |
| 2026-05-07 20:16 | 35.86742 | -114.26119 | 40432 ft | 478 kts | 102° |
| 2026-05-07 20:17 | 35.85028 | -114.18200 | 40439 ft | 478 kts | 102° |
| 2026-05-07 20:17 | 35.83308 | -114.10273 | 40447 ft | 478 kts | 102° |
| 2026-05-07 20:18 | 35.81583 | -114.02357 | 40434 ft | 479 kts | 102° |
| 2026-05-07 20:18 | 35.79850 | -113.94428 | 40433 ft | 479 kts | 102° |
| 2026-05-07 20:19 | 35.78114 | -113.86510 | 40455 ft | 479 kts | 102° |
| 2026-05-07 20:19 | 35.76374 | -113.78602 | 40460 ft | 479 kts | 103° |
| 2026-05-07 20:20 | 35.74633 | -113.70720 | 40451 ft | 479 kts | 103° |
| 2026-05-07 20:20 | 35.72881 | -113.62814 | 40470 ft | 479 kts | 103° |
| 2026-05-07 20:21 | 35.71124 | -113.54903 | 40461 ft | 479 kts | 103° |
| 2026-05-07 20:21 | 35.69364 | -113.47007 | 40468 ft | 479 kts | 103° |
| 2026-05-07 20:22 | 35.67600 | -113.39132 | 40472 ft | 479 kts | 103° |
| 2026-05-07 20:22 | 35.65826 | -113.31240 | 40482 ft | 479 kts | 103° |
| 2026-05-07 20:23 | 35.64045 | -113.23336 | 40496 ft | 479 kts | 103° |
| 2026-05-07 20:23 | 35.62274 | -113.15501 | 40496 ft | 479 kts | 103° |
| 2026-05-07 20:24 | 35.60485 | -113.07611 | 40509 ft | 479 kts | 103° |
| 2026-05-07 20:24 | 35.58677 | -112.99666 | 40506 ft | 480 kts | 103° |
| 2026-05-07 20:25 | 35.56874 | -112.91770 | 40518 ft | 480 kts | 103° |
| 2026-05-07 20:25 | 35.55080 | -112.83939 | 40518 ft | 480 kts | 103° |
| 2026-05-07 20:26 | 35.53280 | -112.76107 | 40521 ft | 480 kts | 103° |
| 2026-05-07 20:26 | 35.51757 | -112.69500 | 40529 ft | 480 kts | 103° |
| 2026-05-07 20:27 | 35.49636 | -112.60330 | 40522 ft | 481 kts | 103° |
| 2026-05-07 20:27 | 35.48171 | -112.54019 | 40529 ft | 481 kts | 103° |
| 2026-05-07 20:28 | 35.46333 | -112.46119 | 40591 ft | 481 kts | 103° |
| 2026-05-07 20:28 | 35.44489 | -112.38219 | 40639 ft | 482 kts | 104° |
| 2026-05-07 20:29 | 35.42638 | -112.30317 | 40683 ft | 482 kts | 104° |
| 2026-05-07 20:29 | 35.40780 | -112.22414 | 40709 ft | 482 kts | 104° |
| 2026-05-07 20:30 | 35.38917 | -112.14512 | 40717 ft | 482 kts | 104° |
| 2026-05-07 20:30 | 35.37050 | -112.06616 | 40699 ft | 483 kts | 104° |
| 2026-05-07 20:31 | 35.35172 | -111.98702 | 40670 ft | 484 kts | 104° |
| 2026-05-07 20:31 | 35.33290 | -111.90797 | 40637 ft | 484 kts | 104° |
| 2026-05-07 20:32 | 35.31403 | -111.82893 | 40599 ft | 484 kts | 104° |
| 2026-05-07 20:32 | 35.29511 | -111.74994 | 40558 ft | 484 kts | 104° |
| 2026-05-07 20:33 | 35.27609 | -111.67081 | 40562 ft | 484 kts | 104° |
| 2026-05-07 20:33 | 35.25705 | -111.59181 | 40561 ft | 484 kts | 105° |
| 2026-05-07 20:34 | 35.23794 | -111.51279 | 40558 ft | 484 kts | 105° |
| 2026-05-07 20:34 | 35.21877 | -111.43382 | 40558 ft | 484 kts | 105° |
| 2026-05-07 20:35 | 35.19957 | -111.35491 | 40556 ft | 484 kts | 105° |
| 2026-05-07 20:35 | 35.18032 | -111.27602 | 40558 ft | 484 kts | 106° |
| 2026-05-07 20:36 | 35.16100 | -111.19715 | 40550 ft | 484 kts | 105° |
| 2026-05-07 20:36 | 35.14163 | -111.11831 | 40559 ft | 484 kts | 106° |
| 2026-05-07 20:37 | 35.12223 | -111.03959 | 40584 ft | 485 kts | 105° |
| 2026-05-07 20:37 | 35.10285 | -110.96119 | 40611 ft | 486 kts | 106° |
| 2026-05-07 20:38 | 35.08325 | -110.88216 | 40647 ft | 486 kts | 106° |
| 2026-05-07 20:38 | 35.06516 | -110.80274 | 40680 ft | 486 kts | 99° |
| 2026-05-07 20:39 | 35.05842 | -110.72089 | 40678 ft | 485 kts | 93° |
| 2026-05-07 20:39 | 35.05493 | -110.63850 | 40672 ft | 486 kts | 91° |
| 2026-05-07 20:39 | 35.05347 | -110.59724 | 40516 ft | 486 kts | 91° |
| 2026-05-07 20:40 | 35.05200 | -110.55609 | 40519 ft | 486 kts | 92° |
| 2026-05-07 20:40 | 35.04888 | -110.47373 | 40521 ft | 486 kts | 92° |
| 2026-05-07 20:41 | 35.04553 | -110.39125 | 40513 ft | 487 kts | 92° |
| 2026-05-07 20:41 | 35.04206 | -110.30868 | 40512 ft | 487 kts | 92° |
| 2026-05-07 20:42 | 35.03855 | -110.22667 | 40513 ft | 487 kts | 92° |
| 2026-05-07 20:42 | 35.03497 | -110.14406 | 40509 ft | 487 kts | 92° |
| 2026-05-07 20:43 | 35.03134 | -110.06143 | 40508 ft | 489 kts | 93° |
| 2026-05-07 20:43 | 35.02764 | -109.97844 | 40503 ft | 490 kts | 93° |
| 2026-05-07 20:44 | 35.02387 | -109.89540 | 40496 ft | 490 kts | 93° |
| 2026-05-07 20:44 | 35.02004 | -109.81238 | 40500 ft | 490 kts | 93° |
| 2026-05-07 20:45 | 35.01617 | -109.72944 | 40496 ft | 490 kts | 94° |
| 2026-05-07 20:45 | 35.01222 | -109.64631 | 40494 ft | 490 kts | 94° |
| 2026-05-07 20:46 | 35.00822 | -109.56331 | 40492 ft | 490 kts | 94° |
| 2026-05-07 20:46 | 35.00417 | -109.48024 | 40490 ft | 490 kts | 94° |
| 2026-05-07 20:47 | 35.00006 | -109.39728 | 40485 ft | 491 kts | 94° |
| 2026-05-07 20:47 | 34.99589 | -109.31420 | 40488 ft | 491 kts | 94° |
| 2026-05-07 20:48 | 34.99167 | -109.23110 | 40483 ft | 491 kts | 94° |
| 2026-05-07 20:48 | 34.98738 | -109.14806 | 40475 ft | 491 kts | 94° |
| 2026-05-07 20:49 | 34.98304 | -109.06502 | 40476 ft | 492 kts | 94° |
| 2026-05-07 20:49 | 34.97863 | -108.98156 | 40478 ft | 493 kts | 95° |
| 2026-05-07 20:50 | 34.97420 | -108.89890 | 40474 ft | 495 kts | 95° |
| 2026-05-07 20:50 | 34.96963 | -108.81481 | 40690 ft | 497 kts | 95° |
| 2026-05-07 20:50 | 34.96733 | -108.77285 | 40849 ft | 497 kts | 95° |
| 2026-05-07 20:51 | 34.96500 | -108.73065 | 40905 ft | 500 kts | 95° |
| 2026-05-07 20:51 | 34.96265 | -108.68828 | 41020 ft | 500 kts | 95° |
| 2026-05-07 20:51 | 34.96029 | -108.64602 | 41075 ft | 500 kts | 95° |
| 2026-05-07 20:52 | 34.95553 | -108.56143 | 41065 ft | 500 kts | 95° |
| 2026-05-07 20:52 | 34.95071 | -108.47693 | 41063 ft | 500 kts | 95° |
| 2026-05-07 20:53 | 34.94585 | -108.39248 | 41065 ft | 500 kts | 96° |
| 2026-05-07 20:53 | 34.94089 | -108.30766 | 41063 ft | 502 kts | 96° |
| 2026-05-07 20:54 | 34.93587 | -108.22270 | 41065 ft | 503 kts | 96° |
| 2026-05-07 20:54 | 34.93080 | -108.13777 | 41065 ft | 503 kts | 96° |
| 2026-05-07 20:55 | 34.92566 | -108.05279 | 41063 ft | 503 kts | 96° |
| 2026-05-07 20:55 | 34.92046 | -107.96783 | 41070 ft | 503 kts | 96° |
| 2026-05-07 20:56 | 34.91519 | -107.88280 | 41077 ft | 503 kts | 96° |
| 2026-05-07 20:56 | 34.90988 | -107.79795 | 41071 ft | 503 kts | 96° |
| 2026-05-07 20:57 | 34.90449 | -107.71294 | 41071 ft | 504 kts | 97° |
| 2026-05-07 20:57 | 34.89906 | -107.62813 | 41076 ft | 506 kts | 97° |
| 2026-05-07 20:58 | 34.89353 | -107.54265 | 41077 ft | 506 kts | 97° |
| 2026-05-07 20:58 | 34.88794 | -107.45713 | 41080 ft | 506 kts | 97° |
| 2026-05-07 20:59 | 34.88229 | -107.37168 | 41077 ft | 507 kts | 97° |
| 2026-05-07 20:59 | 34.87655 | -107.28599 | 41077 ft | 509 kts | 97° |
| 2026-05-07 21:00 | 34.87074 | -107.20006 | 41078 ft | 509 kts | 97° |
| 2026-05-07 21:00 | 34.86489 | -107.11424 | 41082 ft | 509 kts | 97° |
| 2026-05-07 21:01 | 34.85896 | -107.02835 | 41075 ft | 509 kts | 97° |
| 2026-05-07 21:01 | 34.85295 | -106.94229 | 41080 ft | 512 kts | 97° |
| 2026-05-07 21:02 | 34.84685 | -106.85585 | 41180 ft | 512 kts | 97° |
| 2026-05-07 21:02 | 34.84075 | -106.77010 | 41179 ft | 512 kts | 97° |
| 2026-05-07 21:03 | 34.83454 | -106.68381 | 41170 ft | 512 kts | 98° |
| 2026-05-07 21:03 | 34.82825 | -106.59728 | 41179 ft | 514 kts | 98° |
| 2026-05-07 21:04 | 34.82187 | -106.51049 | 41170 ft | 515 kts | 98° |
| 2026-05-07 21:04 | 34.81545 | -106.42374 | 41156 ft | 515 kts | 98° |
| 2026-05-07 21:05 | 34.80896 | -106.33701 | 41134 ft | 515 kts | 98° |
| 2026-05-07 21:05 | 34.80239 | -106.25013 | 41118 ft | 517 kts | 98° |
| 2026-05-07 21:06 | 34.79574 | -106.16295 | 41124 ft | 518 kts | 98° |
| 2026-05-07 21:06 | 34.78902 | -106.07566 | 41123 ft | 518 kts | 98° |
| 2026-05-07 21:07 | 34.78224 | -105.98845 | 41118 ft | 518 kts | 99° |
| 2026-05-07 21:07 | 34.77536 | -105.90096 | 41129 ft | 521 kts | 99° |
| 2026-05-07 21:08 | 34.76841 | -105.81316 | 41129 ft | 522 kts | 99° |
| 2026-05-07 21:08 | 34.76139 | -105.72525 | 41133 ft | 522 kts | 99° |
| 2026-05-07 21:09 | 34.75432 | -105.63750 | 41123 ft | 522 kts | 99° |
| 2026-05-07 21:09 | 34.74714 | -105.54933 | 41113 ft | 525 kts | 99° |
| 2026-05-07 21:10 | 34.73987 | -105.46082 | 41114 ft | 528 kts | 100° |
| 2026-05-07 21:10 | 34.73251 | -105.37194 | 41113 ft | 529 kts | 100° |
| 2026-05-07 21:11 | 34.72513 | -105.28353 | 41091 ft | 529 kts | 100° |
| 2026-05-07 21:11 | 34.71383 | -105.14974 | 41081 ft | 532 kts | 100° |
| 2026-05-07 21:12 | 34.70621 | -105.06033 | 41077 ft | 532 kts | 100° |
| 2026-05-07 21:12 | 34.69852 | -104.97101 | 41077 ft | 532 kts | 100° |
| 2026-05-07 21:13 | 34.69076 | -104.88166 | 41086 ft | 533 kts | 101° |
| 2026-05-07 21:13 | 34.68290 | -104.79197 | 41098 ft | 534 kts | 101° |
| 2026-05-07 21:14 | 34.67496 | -104.70213 | 41105 ft | 535 kts | 101° |
| 2026-05-07 21:14 | 34.66697 | -104.61231 | 41101 ft | 534 kts | 101° |
| 2026-05-07 21:15 | 34.66027 | -104.53770 | 41096 ft | 535 kts | 101° |
| 2026-05-07 21:15 | 34.65215 | -104.44792 | 41081 ft | 535 kts | 101° |
| 2026-05-07 21:16 | 34.64397 | -104.35826 | 41049 ft | 534 kts | 101° |
| 2026-05-07 21:16 | 34.63570 | -104.26840 | 41070 ft | 536 kts | 101° |
| 2026-05-07 21:17 | 34.62736 | -104.17844 | 41058 ft | 537 kts | 101° |
| 2026-05-07 21:17 | 34.61891 | -104.08811 | 41062 ft | 539 kts | 102° |
| 2026-05-07 21:18 | 34.61039 | -103.99769 | 41059 ft | 539 kts | 102° |
| 2026-05-07 21:18 | 34.60181 | -103.90734 | 41061 ft | 539 kts | 102° |
| 2026-05-07 21:19 | 34.59313 | -103.81677 | 41057 ft | 540 kts | 102° |
| 2026-05-07 21:19 | 34.58436 | -103.72604 | 41063 ft | 542 kts | 102° |
| 2026-05-07 21:20 | 34.57551 | -103.63513 | 41068 ft | 542 kts | 102° |
| 2026-05-07 21:20 | 34.56661 | -103.54424 | 41069 ft | 542 kts | 102° |
| 2026-05-07 21:21 | 34.55763 | -103.45340 | 41084 ft | 543 kts | 102° |
| 2026-05-07 21:21 | 34.54854 | -103.36231 | 41085 ft | 545 kts | 102° |
| 2026-05-07 21:22 | 34.53943 | -103.27161 | 41120 ft | 545 kts | 102° |
| 2026-05-07 21:22 | 34.53021 | -103.18041 | 41154 ft | 545 kts | 102° |
| 2026-05-07 21:23 | 34.52088 | -103.08901 | 41153 ft | 547 kts | 103° |
| 2026-05-07 21:23 | 34.51143 | -102.99717 | 41161 ft | 550 kts | 103° |
| 2026-05-07 21:24 | 34.50192 | -102.90516 | 41154 ft | 550 kts | 103° |
| 2026-05-07 21:24 | 34.49242 | -102.81337 | 40925 ft | 548 kts | 103° |
| 2026-05-07 21:25 | 34.48772 | -102.76745 | 40721 ft | 550 kts | 103° |
| 2026-05-07 21:25 | 34.48300 | -102.72140 | 40567 ft | 552 kts | 103° |
| 2026-05-07 21:25 | 34.47822 | -102.67501 | 40440 ft | 556 kts | 103° |
| 2026-05-07 21:25 | 34.47341 | -102.62846 | 40573 ft | 557 kts | 103° |
| 2026-05-07 21:26 | 34.46861 | -102.58201 | 40831 ft | 555 kts | 103° |
| 2026-05-07 21:26 | 34.46380 | -102.53566 | 41046 ft | 554 kts | 103° |
| 2026-05-07 21:26 | 34.45412 | -102.44318 | 41032 ft | 553 kts | 103° |
| 2026-05-07 21:27 | 34.44436 | -102.35065 | 41032 ft | 554 kts | 103° |
| 2026-05-07 21:27 | 34.43451 | -102.25791 | 41026 ft | 556 kts | 103° |
| 2026-05-07 21:28 | 34.42458 | -102.16513 | 41017 ft | 556 kts | 103° |
| 2026-05-07 21:28 | 34.41466 | -102.07304 | 41017 ft | 556 kts | 103° |
| 2026-05-07 21:29 | 34.40456 | -101.98002 | 41021 ft | 557 kts | 103° |
| 2026-05-07 21:29 | 34.39437 | -101.88679 | 41032 ft | 560 kts | 104° |
| 2026-05-07 21:30 | 34.38408 | -101.79327 | 41040 ft | 561 kts | 104° |
| 2026-05-07 21:30 | 34.37370 | -101.69962 | 41046 ft | 561 kts | 104° |
| 2026-05-07 21:31 | 34.36325 | -101.60606 | 41045 ft | 562 kts | 104° |
| 2026-05-07 21:31 | 34.35270 | -101.51222 | 41036 ft | 563 kts | 104° |
| 2026-05-07 21:32 | 34.34208 | -101.41842 | 41022 ft | 563 kts | 104° |
| 2026-05-07 21:32 | 34.33138 | -101.32455 | 41011 ft | 563 kts | 104° |
| 2026-05-07 21:33 | 34.32060 | -101.23069 | 41013 ft | 565 kts | 104° |
| 2026-05-07 21:33 | 34.30970 | -101.13645 | 41012 ft | 566 kts | 104° |
| 2026-05-07 21:34 | 34.29534 | -101.04368 | 41015 ft | 554 kts | 115° |
| 2026-05-07 21:34 | 34.27067 | -100.95656 | 41013 ft | 550 kts | 118° |
| 2026-05-07 21:35 | 34.24471 | -100.86881 | 40986 ft | 551 kts | 118° |
| 2026-05-07 21:35 | 34.21912 | -100.78218 | 41019 ft | 551 kts | 118° |
| 2026-05-07 21:36 | 34.19340 | -100.69517 | 41020 ft | 551 kts | 118° |
| 2026-05-07 21:36 | 34.16754 | -100.60793 | 41019 ft | 551 kts | 118° |
| 2026-05-07 21:37 | 34.14167 | -100.52089 | 41021 ft | 552 kts | 118° |
| 2026-05-07 21:37 | 34.11562 | -100.43353 | 41021 ft | 554 kts | 118° |
| 2026-05-07 21:38 | 34.08950 | -100.34615 | 41014 ft | 554 kts | 118° |
| 2026-05-07 21:38 | 34.06331 | -100.25879 | 41014 ft | 554 kts | 119° |
| 2026-05-07 21:39 | 34.03706 | -100.17152 | 41018 ft | 554 kts | 119° |
| 2026-05-07 21:39 | 34.01071 | -100.08417 | 41014 ft | 554 kts | 119° |
| 2026-05-07 21:40 | 33.98429 | -99.99686 | 41020 ft | 554 kts | 119° |
| 2026-05-07 21:40 | 33.95784 | -99.90966 | 40906 ft | 552 kts | 119° |
| 2026-05-07 21:41 | 33.94465 | -99.86626 | 40659 ft | 552 kts | 119° |
| 2026-05-07 21:41 | 33.93153 | -99.82313 | 40402 ft | 546 kts | 119° |
| 2026-05-07 21:41 | 33.91847 | -99.78022 | 40152 ft | 542 kts | 120° |
| 2026-05-07 21:41 | 33.90549 | -99.73774 | 39915 ft | 541 kts | 120° |
| 2026-05-07 21:42 | 33.89266 | -99.69582 | 39620 ft | 539 kts | 120° |
| 2026-05-07 21:42 | 33.87969 | -99.65351 | 39123 ft | 539 kts | 120° |
| 2026-05-07 21:42 | 33.86668 | -99.61118 | 38525 ft | 541 kts | 120° |
| 2026-05-07 21:42 | 33.85359 | -99.56866 | 37914 ft | 541 kts | 120° |
| 2026-05-07 21:43 | 33.84044 | -99.52630 | 37314 ft | 539 kts | 120° |
| 2026-05-07 21:43 | 33.82727 | -99.48417 | 36787 ft | 538 kts | 120° |
| 2026-05-07 21:43 | 33.81407 | -99.44208 | 36191 ft | 538 kts | 120° |
| 2026-05-07 21:43 | 33.80083 | -99.39991 | 35569 ft | 539 kts | 120° |
| 2026-05-07 21:44 | 33.78754 | -99.35768 | 34903 ft | 541 kts | 120° |
| 2026-05-07 21:44 | 33.77420 | -99.31532 | 34173 ft | 543 kts | 120° |
| 2026-05-07 21:44 | 33.76079 | -99.27280 | 33315 ft | 546 kts | 120° |
| 2026-05-07 21:44 | 33.74729 | -99.23002 | 32461 ft | 549 kts | 120° |
| 2026-05-07 21:45 | 33.73373 | -99.18709 | 31610 ft | 550 kts | 119° |
| 2026-05-07 21:45 | 33.72010 | -99.14403 | 30709 ft | 553 kts | 119° |
| 2026-05-07 21:45 | 33.70640 | -99.10077 | 29735 ft | 556 kts | 119° |
| 2026-05-07 21:45 | 33.69270 | -99.05751 | 29095 ft | 550 kts | 119° |
| 2026-05-07 21:46 | 33.67917 | -99.01479 | 28498 ft | 544 kts | 118° |
| 2026-05-07 21:46 | 33.66577 | -98.97260 | 27860 ft | 538 kts | 118° |
| 2026-05-07 21:46 | 33.65248 | -98.93085 | 27230 ft | 533 kts | 117° |
| 2026-05-07 21:46 | 33.63928 | -98.88946 | 26603 ft | 529 kts | 117° |
| 2026-05-07 21:47 | 33.62620 | -98.84844 | 25972 ft | 524 kts | 116° |
| 2026-05-07 21:47 | 33.61343 | -98.80765 | 25353 ft | 520 kts | 115° |
| 2026-05-07 21:47 | 33.60081 | -98.76711 | 24739 ft | 516 kts | 115° |
| 2026-05-07 21:47 | 33.58829 | -98.72690 | 24112 ft | 513 kts | 114° |
| 2026-05-07 21:48 | 33.57589 | -98.68712 | 23489 ft | 509 kts | 114° |
| 2026-05-07 21:48 | 33.56352 | -98.64775 | 23013 ft | 499 kts | 114° |
| 2026-05-07 21:48 | 33.55112 | -98.60898 | 22168 ft | 498 kts | 114° |
| 2026-05-07 21:48 | 33.53868 | -98.57036 | 21496 ft | 493 kts | 114° |
| 2026-05-07 21:49 | 33.52641 | -98.53227 | 20887 ft | 487 kts | 114° |
| 2026-05-07 21:49 | 33.51435 | -98.49486 | 20286 ft | 480 kts | 114° |
| 2026-05-07 21:49 | 33.50238 | -98.45779 | 19692 ft | 474 kts | 114° |
| 2026-05-07 21:49 | 33.49056 | -98.42123 | 19109 ft | 468 kts | 114° |
| 2026-05-07 21:50 | 33.47903 | -98.38559 | 18542 ft | 462 kts | 114° |
| 2026-05-07 21:50 | 33.46733 | -98.34945 | 17889 ft | 456 kts | 114° |
| 2026-05-07 21:50 | 33.45611 | -98.31484 | 17323 ft | 449 kts | 114° |
| 2026-05-07 21:50 | 33.44488 | -98.28022 | 16767 ft | 442 kts | 114° |
| 2026-05-07 21:51 | 33.43383 | -98.24621 | 16215 ft | 435 kts | 114° |
| 2026-05-07 21:51 | 33.42291 | -98.21265 | 15674 ft | 430 kts | 114° |
| 2026-05-07 21:51 | 33.41212 | -98.17952 | 15139 ft | 426 kts | 114° |
| 2026-05-07 21:51 | 33.40136 | -98.14655 | 14593 ft | 422 kts | 114° |
| 2026-05-07 21:52 | 33.39075 | -98.11404 | 14092 ft | 418 kts | 114° |
| 2026-05-07 21:52 | 33.38025 | -98.08188 | 13542 ft | 413 kts | 114° |
| 2026-05-07 21:52 | 33.36990 | -98.05020 | 13197 ft | 402 kts | 114° |
| 2026-05-07 21:52 | 33.35988 | -98.01955 | 12851 ft | 391 kts | 114° |
| 2026-05-07 21:53 | 33.35008 | -97.98964 | 12426 ft | 384 kts | 114° |
| 2026-05-07 21:53 | 33.34039 | -97.96011 | 11986 ft | 378 kts | 114° |
| 2026-05-07 21:53 | 33.33087 | -97.93112 | 11511 ft | 373 kts | 114° |
| 2026-05-07 21:53 | 33.32144 | -97.90235 | 11060 ft | 369 kts | 114° |
| 2026-05-07 21:54 | 33.31216 | -97.87398 | 10607 ft | 364 kts | 114° |
| 2026-05-07 21:54 | 33.30301 | -97.84597 | 10261 ft | 357 kts | 114° |
| 2026-05-07 21:54 | 33.29413 | -97.81880 | 10093 ft | 344 kts | 114° |
| 2026-05-07 21:54 | 33.28559 | -97.79266 | 9939 ft | 332 kts | 114° |
| 2026-05-07 21:55 | 33.27731 | -97.76739 | 9737 ft | 322 kts | 114° |
| 2026-05-07 21:55 | 33.26880 | -97.74273 | 9322 ft | 319 kts | 120° |
| 2026-05-07 21:55 | 33.25598 | -97.72164 | 8898 ft | 311 kts | 137° |
| 2026-05-07 21:55 | 33.24082 | -97.70349 | 8441 ft | 307 kts | 140° |
| 2026-05-07 21:56 | 33.22544 | -97.68604 | 7865 ft | 302 kts | 140° |
| 2026-05-07 21:56 | 33.21023 | -97.66901 | 7268 ft | 298 kts | 141° |
| 2026-05-07 21:56 | 33.19430 | -97.65343 | 6805 ft | 293 kts | 145° |
| 2026-05-07 21:56 | 33.17809 | -97.63859 | 6569 ft | 293 kts | 145° |
| 2026-05-07 21:57 | 33.16191 | -97.62388 | 6323 ft | 292 kts | 145° |
| 2026-05-07 21:57 | 33.14577 | -97.60920 | 6066 ft | 292 kts | 144° |
| 2026-05-07 21:57 | 33.12967 | -97.59452 | 5829 ft | 290 kts | 143° |
| 2026-05-07 21:57 | 33.11394 | -97.58017 | 5607 ft | 287 kts | 143° |
| 2026-05-07 21:58 | 33.09797 | -97.56560 | 5470 ft | 287 kts | 143° |
| 2026-05-07 21:58 | 33.08234 | -97.55135 | 5348 ft | 287 kts | 143° |
| 2026-05-07 21:58 | 33.06654 | -97.53693 | 5221 ft | 285 kts | 142° |
| 2026-05-07 21:58 | 33.05077 | -97.52255 | 5101 ft | 285 kts | 142° |
| 2026-05-07 21:59 | 33.03506 | -97.50823 | 4932 ft | 284 kts | 142° |
| 2026-05-07 21:59 | 33.01939 | -97.49395 | 4864 ft | 283 kts | 142° |
| 2026-05-07 21:59 | 33.00376 | -97.47970 | 4734 ft | 283 kts | 142° |
| 2026-05-07 21:59 | 32.98819 | -97.46551 | 4611 ft | 281 kts | 142° |
| 2026-05-07 22:00 | 32.97273 | -97.45143 | 4481 ft | 280 kts | 142° |
| 2026-05-07 22:00 | 32.95748 | -97.43755 | 4345 ft | 277 kts | 142° |
| 2026-05-07 22:00 | 32.94219 | -97.42366 | 4235 ft | 275 kts | 142° |
| 2026-05-07 22:00 | 32.92703 | -97.40989 | 4099 ft | 273 kts | 141° |
| 2026-05-07 22:01 | 32.91201 | -97.39624 | 3978 ft | 271 kts | 141° |
| 2026-05-07 22:01 | 32.89708 | -97.38269 | 3847 ft | 268 kts | 142° |
| 2026-05-07 22:01 | 32.88262 | -97.36955 | 3731 ft | 258 kts | 141° |
| 2026-05-07 22:01 | 32.86857 | -97.35681 | 3589 ft | 249 kts | 142° |
| 2026-05-07 22:02 | 32.85505 | -97.34461 | 3448 ft | 240 kts | 142° |
| 2026-05-07 22:02 | 32.84205 | -97.33283 | 3312 ft | 230 kts | 141° |
| 2026-05-07 22:02 | 32.82965 | -97.32148 | 3198 ft | 218 kts | 141° |
| 2026-05-07 22:02 | 32.81792 | -97.31081 | 3099 ft | 208 kts | 141° |
| 2026-05-07 22:03 | 32.80671 | -97.30063 | 2970 ft | 199 kts | 141° |
| 2026-05-07 22:03 | 32.79945 | -97.29410 | 2891 ft | 196 kts | 141° |
| 2026-05-07 22:03 | 32.78868 | -97.28445 | 2769 ft | 191 kts | 142° |
| 2026-05-07 22:03 | 32.77839 | -97.27489 | 2660 ft | 185 kts | 137° |
| 2026-05-07 22:04 | 32.76996 | -97.26356 | 2514 ft | 183 kts | 122° |
| 2026-05-07 22:04 | 32.76499 | -97.24977 | 2400 ft | 183 kts | 103° |
| 2026-05-07 22:04 | 32.76434 | -97.23491 | 2376 ft | 179 kts | 83° |
| 2026-05-07 22:04 | 32.76761 | -97.22149 | 2357 ft | 179 kts | 65° |
| 2026-05-07 22:05 | 32.77473 | -97.20936 | 2375 ft | 180 kts | 46° |
| 2026-05-07 22:05 | 32.78482 | -97.20071 | 2376 ft | 179 kts | 27° |
| 2026-05-07 22:05 | 32.79630 | -97.19664 | 2352 ft | 169 kts | 8° |
| 2026-05-07 22:05 | 32.80801 | -97.19711 | 2368 ft | 170 kts | 351° |
| 2026-05-07 22:06 | 32.81906 | -97.20195 | 2369 ft | 170 kts | 332° |
| 2026-05-07 22:06 | 32.82834 | -97.21061 | 2370 ft | 171 kts | 315° |
| 2026-05-07 22:06 | 32.83605 | -97.22107 | 2372 ft | 171 kts | 311° |
| 2026-05-07 22:06 | 32.84353 | -97.23202 | 2373 ft | 171 kts | 310° |
| 2026-05-07 22:07 | 32.85097 | -97.24292 | 2373 ft | 170 kts | 310° |
| 2026-05-07 22:07 | 32.85848 | -97.25386 | 2380 ft | 171 kts | 310° |
| 2026-05-07 22:07 | 32.86603 | -97.26475 | 2375 ft | 171 kts | 310° |
| 2026-05-07 22:07 | 32.87363 | -97.27569 | 2379 ft | 172 kts | 311° |
| 2026-05-07 22:08 | 32.88142 | -97.28653 | 2377 ft | 172 kts | 315° |
| 2026-05-07 22:08 | 32.89124 | -97.29385 | 2353 ft | 168 kts | 353° |
| 2026-05-07 22:08 | 32.90255 | -97.29219 | 2185 ft | 164 kts | 33° |
| 2026-05-07 22:08 | 32.90809 | -97.28121 | 2110 ft | 160 kts | 89° |
| 2026-05-07 22:09 | 32.90334 | -97.26979 | 2110 ft | 162 kts | 143° |
| 2026-05-07 22:09 | 32.89244 | -97.26809 | 2105 ft | 167 kts | 199° |
| 2026-05-07 22:09 | 32.88475 | -97.27789 | 2111 ft | 169 kts | 254° |
| 2026-05-07 22:09 | 32.88679 | -97.29116 | 2087 ft | 168 kts | 309° |
| 2026-05-07 22:10 | 32.89651 | -97.29841 | 2013 ft | 166 kts | 343° |
| 2026-05-07 22:10 | 32.90730 | -97.30151 | 1901 ft | 151 kts | 352° |
| 2026-05-07 22:10 | 32.91723 | -97.30343 | 1833 ft | 142 kts | 352° |
| 2026-05-07 22:10 | 32.92713 | -97.30546 | 1688 ft | 146 kts | 352° |
| 2026-05-07 22:11 | 32.93716 | -97.30758 | 1417 ft | 147 kts | 352° |
| 2026-05-07 22:11 | 32.94710 | -97.30957 | 1226 ft | 144 kts | 353° |
| 2026-05-07 22:11 | 32.95706 | -97.31142 | 1147 ft | 145 kts | 351° |
| 2026-05-07 22:11 | 32.96692 | -97.31347 | 956 ft | 145 kts | 350° |
| 2026-05-07 22:12 | 32.97676 | -97.31546 | 740 ft | 142 kts | 352° |
| 2026-05-07 22:12 | 32.98596 | -97.31764 | 699 ft | 122 kts | 352° |
| 2026-05-07 22:12 | 32.99209 | -97.31877 | 718 ft | 51 kts | 349° |
| 2026-05-07 22:12 | 32.99334 | -97.31902 | 720 ft | 14 kts | 350° |
| 2026-05-07 22:13 | 32.99480 | -97.31935 | 724 ft | 25 kts | 347° |
| 2026-05-07 22:13 | 32.99647 | -97.31973 | 726 ft | 24 kts | 349° |
| 2026-05-07 22:13 | 32.99769 | -97.31952 | 729 ft | 13 kts | 58° |
| 2026-05-07 22:13 | 32.99774 | -97.31939 | 729 ft | 0 kts | 65° |
| 2026-05-07 22:14 | 32.99774 | -97.31938 | 729 ft | 0 kts | 65° |
| 2026-05-07 22:14 | 32.99778 | -97.31929 | 730 ft | 4 kts | 65° |
| 2026-05-07 22:14 | 32.99792 | -97.31855 | 728 ft | 15 kts | 81° |
| 2026-05-07 22:15 | 32.99815 | -97.31688 | 728 ft | 27 kts | 80° |
| 2026-05-07 22:15 | 32.99852 | -97.31436 | 724 ft | 33 kts | 80° |
| 2026-05-07 22:15 | 32.99922 | -97.31311 | 720 ft | 13 kts | 3° |
| 2026-05-07 22:15 | 33.00010 | -97.31375 | 719 ft | 18 kts | 311° |
| 2026-05-07 22:16 | 33.00012 | -97.31493 | 722 ft | 17 kts | 252° |
| 2026-05-07 22:16 | 32.99981 | -97.31666 | 726 ft | 20 kts | 261° |
| 2026-05-07 22:16 | 32.99942 | -97.31750 | 730 ft | 8 kts | 198° |
| 2026-05-07 22:16 | 32.99909 | -97.31739 | 729 ft | 0 kts | 153° |
| 2026-05-07 22:17 | 32.99907 | -97.31738 | 729 ft | 0 kts | 152° |